createdAt,value
2017-07-04T00:00:00.092Z,17.70
2017-07-04T00:00:04.334Z,17.70
2017-07-04T00:00:08.571Z,17.70
2017-07-04T00:00:12.864Z,17.70
2017-07-04T00:00:17.092Z,17.70
2017-07-04T00:00:21.338Z,17.70
2017-07-04T00:00:25.576Z,17.70
2017-07-04T00:00:30.560Z,17.70
2017-07-04T00:00:35.184Z,17.70
2017-07-04T00:00:39.430Z,17.70
2017-07-04T00:00:43.683Z,17.60
2017-07-04T00:00:47.923Z,17.70
2017-07-04T00:00:52.166Z,17.70
2017-07-04T00:00:56.405Z,17.60
2017-07-04T00:01:00.655Z,17.60
2017-07-04T00:01:04.903Z,17.70
2017-07-04T00:01:09.132Z,17.60
2017-07-04T00:01:13.374Z,17.70
2017-07-04T00:01:17.604Z,17.70
2017-07-04T00:01:21.842Z,17.70
2017-07-04T00:01:26.086Z,17.60
2017-07-04T00:01:30.334Z,17.70
2017-07-04T00:01:34.565Z,17.60
2017-07-04T00:01:38.789Z,17.70
2017-07-04T00:01:43.013Z,17.70
2017-07-04T00:01:47.258Z,17.70
2017-07-04T00:01:51.506Z,17.60
2017-07-04T00:01:55.758Z,17.60
2017-07-04T00:01:59.969Z,17.60
2017-07-04T00:02:04.225Z,17.60
2017-07-04T00:02:08.476Z,17.60
2017-07-04T00:02:12.727Z,17.60
2017-07-04T00:02:16.965Z,17.60
2017-07-04T00:02:21.194Z,17.60
2017-07-04T00:02:25.442Z,17.60
2017-07-04T00:02:29.673Z,17.60
2017-07-04T00:02:33.905Z,17.60
2017-07-04T00:02:38.151Z,17.60
2017-07-04T00:02:42.403Z,17.60
2017-07-04T00:02:46.642Z,17.60
2017-07-04T00:02:50.865Z,17.60
2017-07-04T00:02:55.109Z,17.60
2017-07-04T00:02:59.337Z,17.60
2017-07-04T00:03:03.604Z,17.60
2017-07-04T00:03:07.851Z,17.60
2017-07-04T00:03:12.125Z,17.60
2017-07-04T00:03:16.359Z,17.60
2017-07-04T00:03:20.582Z,17.60
2017-07-04T00:03:24.819Z,17.60
2017-07-04T00:03:29.082Z,17.60
2017-07-04T00:03:33.301Z,17.60
2017-07-04T00:03:37.541Z,17.60
2017-07-04T00:03:41.769Z,17.60
2017-07-04T00:03:46.012Z,17.60
2017-07-04T00:03:50.245Z,17.60
2017-07-04T00:03:54.499Z,17.60
2017-07-04T00:03:58.747Z,17.60
2017-07-04T00:04:02.989Z,17.60
2017-07-04T00:04:07.227Z,17.60
2017-07-04T00:04:11.449Z,17.60
2017-07-04T00:04:15.684Z,17.60
2017-07-04T00:04:19.937Z,17.60
2017-07-04T00:04:24.152Z,17.60
2017-07-04T00:04:28.391Z,17.60
2017-07-04T00:04:32.643Z,17.50
2017-07-04T00:04:36.876Z,17.50
2017-07-04T00:04:41.105Z,17.60
2017-07-04T00:04:45.337Z,17.50
2017-07-04T00:04:49.619Z,17.50
2017-07-04T00:04:53.838Z,17.50
2017-07-04T00:04:58.066Z,17.50
2017-07-04T00:05:02.302Z,17.50
2017-07-04T00:05:06.575Z,17.50
2017-07-04T00:05:10.802Z,17.50
2017-07-04T00:05:15.031Z,17.50
2017-07-04T00:05:19.270Z,17.50
2017-07-04T00:05:23.512Z,17.50
2017-07-04T00:05:27.754Z,17.50
2017-07-04T00:05:31.999Z,17.50
2017-07-04T00:05:36.246Z,17.50
2017-07-04T00:05:40.481Z,17.50
2017-07-04T00:05:44.763Z,17.50
2017-07-04T00:05:49.003Z,17.50
2017-07-04T00:05:53.233Z,17.50
2017-07-04T00:05:57.474Z,17.50
2017-07-04T00:06:01.721Z,17.50
2017-07-04T00:06:05.940Z,17.50
2017-07-04T00:06:10.172Z,17.50
2017-07-04T00:06:14.424Z,17.50
2017-07-04T00:06:18.692Z,17.50
2017-07-04T00:06:23.706Z,17.50
2017-07-04T00:06:27.938Z,17.50
2017-07-04T00:06:32.165Z,17.50
2017-07-04T00:06:36.417Z,17.50
2017-07-04T00:06:41.431Z,17.50
2017-07-04T00:06:46.434Z,17.50
2017-07-04T00:06:50.674Z,17.50
2017-07-04T00:06:54.904Z,17.50
2017-07-04T00:06:59.146Z,17.50
2017-07-04T00:07:04.144Z,17.40
2017-07-04T00:07:08.411Z,17.40
2017-07-04T00:07:12.659Z,17.50
2017-07-04T00:07:17.653Z,17.50
2017-07-04T00:07:21.888Z,17.40
2017-07-04T00:07:26.113Z,17.50
2017-07-04T00:07:30.340Z,17.50
2017-07-04T00:07:34.565Z,17.50
2017-07-04T00:07:38.802Z,17.50
2017-07-04T00:07:43.050Z,17.50
2017-07-04T00:07:47.340Z,17.40
2017-07-04T00:07:51.582Z,17.40
2017-07-04T00:07:56.582Z,17.40
2017-07-04T00:08:00.820Z,17.40
2017-07-04T00:08:05.176Z,17.40
2017-07-04T00:08:09.423Z,17.40
2017-07-04T00:08:13.654Z,17.40
2017-07-04T00:08:17.902Z,17.40
2017-07-04T00:08:22.893Z,17.40
2017-07-04T00:08:27.132Z,17.40
2017-07-04T00:08:31.372Z,17.40
2017-07-04T00:08:35.634Z,17.40
2017-07-04T00:08:39.883Z,17.40
2017-07-04T00:08:44.131Z,17.40
2017-07-04T00:08:49.104Z,17.40
2017-07-04T00:08:53.360Z,17.40
2017-07-04T00:08:57.584Z,17.40
2017-07-04T00:09:01.819Z,17.40
2017-07-04T00:09:06.828Z,17.40
2017-07-04T00:09:11.074Z,17.40
2017-07-04T00:09:15.314Z,17.40
2017-07-04T00:09:19.558Z,17.40
2017-07-04T00:09:23.793Z,17.40
2017-07-04T00:09:28.049Z,17.40
2017-07-04T00:09:33.037Z,17.40
2017-07-04T00:09:37.280Z,17.40
2017-07-04T00:09:41.510Z,17.40
2017-07-04T00:09:45.750Z,17.40
2017-07-04T00:09:50.752Z,17.40
2017-07-04T00:09:54.989Z,17.40
2017-07-04T00:09:59.209Z,17.40
2017-07-04T00:10:03.449Z,17.40
2017-07-04T00:10:07.702Z,17.40
2017-07-04T00:10:11.944Z,17.40
2017-07-04T00:10:16.168Z,17.40
2017-07-04T00:10:21.174Z,17.40
2017-07-04T00:10:25.404Z,17.40
2017-07-04T00:10:29.663Z,17.40
2017-07-04T00:10:33.899Z,17.40
2017-07-04T00:10:38.913Z,17.40
2017-07-04T00:10:43.126Z,17.40
2017-07-04T00:10:47.400Z,17.40
2017-07-04T00:10:51.624Z,17.40
2017-07-04T00:10:55.858Z,17.40
2017-07-04T00:11:00.084Z,17.40
2017-07-04T00:11:04.316Z,17.40
2017-07-04T00:11:08.564Z,17.40
2017-07-04T00:11:12.798Z,17.40
2017-07-04T00:11:17.024Z,17.40
2017-07-04T00:11:21.253Z,17.40
2017-07-04T00:11:25.489Z,17.40
2017-07-04T00:11:29.755Z,17.40
2017-07-04T00:11:33.980Z,17.40
2017-07-04T00:11:38.227Z,17.40
2017-07-04T00:11:42.473Z,17.40
2017-07-04T00:11:46.725Z,17.40
2017-07-04T00:11:50.954Z,17.40
2017-07-04T00:11:55.189Z,17.40
2017-07-04T00:11:59.855Z,17.40
2017-07-04T00:12:04.096Z,17.40
2017-07-04T00:12:08.345Z,17.40
2017-07-04T00:12:12.607Z,17.40
2017-07-04T00:12:16.828Z,17.40
2017-07-04T00:12:21.065Z,17.40
2017-07-04T00:12:25.300Z,17.40
2017-07-04T00:12:29.584Z,17.40
2017-07-04T00:12:33.822Z,17.40
2017-07-04T00:12:38.068Z,17.40
2017-07-04T00:12:42.281Z,17.40
2017-07-04T00:12:46.512Z,17.40
2017-07-04T00:12:50.750Z,17.40
2017-07-04T00:12:55.013Z,17.40
2017-07-04T00:12:59.256Z,17.40
2017-07-04T00:13:03.490Z,17.40
2017-07-04T00:13:07.793Z,17.40
2017-07-04T00:13:12.049Z,17.40
2017-07-04T00:13:16.279Z,17.40
2017-07-04T00:13:20.516Z,17.40
2017-07-04T00:13:24.786Z,17.40
2017-07-04T00:13:29.018Z,17.40
2017-07-04T00:13:33.265Z,17.40
2017-07-04T00:13:37.490Z,17.40
2017-07-04T00:13:41.723Z,17.40
2017-07-04T00:13:45.953Z,17.40
2017-07-04T00:13:50.202Z,17.40
2017-07-04T00:13:54.429Z,17.40
2017-07-04T00:13:58.675Z,17.40
2017-07-04T00:14:02.919Z,17.40
2017-07-04T00:14:07.161Z,17.40
2017-07-04T00:14:11.400Z,17.40
2017-07-04T00:14:15.647Z,17.40
2017-07-04T00:14:19.888Z,17.40
2017-07-04T00:14:25.049Z,17.40
2017-07-04T00:14:29.286Z,17.40
2017-07-04T00:14:33.512Z,17.40
2017-07-04T00:14:37.753Z,17.40
2017-07-04T00:14:41.977Z,17.40
2017-07-04T00:14:46.204Z,17.40
2017-07-04T00:14:50.451Z,17.40
2017-07-04T00:14:54.704Z,17.40
2017-07-04T00:14:58.935Z,17.40
2017-07-04T00:15:03.924Z,17.40
2017-07-04T00:15:08.154Z,17.40
2017-07-04T00:15:13.148Z,17.40
2017-07-04T00:15:17.394Z,17.40
2017-07-04T00:15:21.625Z,17.40
2017-07-04T00:15:25.872Z,17.40
2017-07-04T00:15:30.863Z,17.40
2017-07-04T00:15:35.103Z,17.40
2017-07-04T00:15:39.421Z,17.40
2017-07-04T00:15:43.637Z,17.40
2017-07-04T00:15:47.865Z,17.40
2017-07-04T00:15:52.090Z,17.40
2017-07-04T00:15:56.449Z,17.40
2017-07-04T00:16:00.672Z,17.40
2017-07-04T00:16:05.687Z,17.40
2017-07-04T00:16:09.922Z,17.40
2017-07-04T00:16:14.175Z,17.40
2017-07-04T00:16:18.411Z,17.40
2017-07-04T00:16:23.418Z,17.40
2017-07-04T00:16:28.414Z,17.40
2017-07-04T00:16:32.641Z,17.40
2017-07-04T00:16:37.692Z,17.40
2017-07-04T00:16:41.917Z,17.40
2017-07-04T00:16:46.157Z,17.40
2017-07-04T00:16:51.157Z,17.40
2017-07-04T00:16:55.538Z,17.40
2017-07-04T00:16:59.759Z,17.40
2017-07-04T00:17:04.007Z,17.40
2017-07-04T00:17:08.307Z,17.40
2017-07-04T00:17:12.566Z,17.50
2017-07-04T00:17:16.804Z,17.40
2017-07-04T00:17:21.037Z,17.40
2017-07-04T00:17:25.278Z,17.40
2017-07-04T00:17:30.291Z,17.40
2017-07-04T00:17:35.282Z,17.40
2017-07-04T00:17:39.532Z,17.40
2017-07-04T00:17:43.808Z,17.40
2017-07-04T00:17:48.826Z,17.40
2017-07-04T00:17:53.818Z,17.40
2017-07-04T00:17:58.052Z,17.40
2017-07-04T00:18:03.049Z,17.50
2017-07-04T00:18:07.284Z,17.40
2017-07-04T00:18:11.528Z,17.40
2017-07-04T00:18:15.766Z,17.40
2017-07-04T00:18:19.984Z,17.40
2017-07-04T00:18:24.232Z,17.40
2017-07-04T00:18:28.451Z,17.50
2017-07-04T00:18:32.695Z,17.50
2017-07-04T00:18:36.934Z,17.40
2017-07-04T00:18:41.166Z,17.40
2017-07-04T00:18:45.389Z,17.40
2017-07-04T00:18:49.629Z,17.50
2017-07-04T00:18:53.872Z,17.40
2017-07-04T00:18:58.132Z,17.40
2017-07-04T00:19:02.391Z,17.40
2017-07-04T00:19:06.627Z,17.50
2017-07-04T00:19:10.874Z,17.40
2017-07-04T00:19:15.120Z,17.50
2017-07-04T00:19:19.340Z,17.50
2017-07-04T00:19:23.591Z,17.50
2017-07-04T00:19:27.832Z,17.50
2017-07-04T00:19:32.065Z,17.50
2017-07-04T00:19:37.071Z,17.40
2017-07-04T00:19:41.300Z,17.50
2017-07-04T00:19:45.540Z,17.50
2017-07-04T00:19:49.773Z,17.50
2017-07-04T00:19:54.766Z,17.50
2017-07-04T00:19:58.989Z,17.40
2017-07-04T00:20:03.980Z,17.50
2017-07-04T00:20:08.501Z,17.40
2017-07-04T00:20:12.742Z,17.50
2017-07-04T00:20:16.976Z,17.50
2017-07-04T00:20:21.204Z,17.50
2017-07-04T00:20:25.454Z,17.50
2017-07-04T00:20:29.677Z,17.40
2017-07-04T00:20:33.916Z,17.50
2017-07-04T00:20:38.931Z,17.40
2017-07-04T00:20:43.925Z,17.40
2017-07-04T00:20:48.179Z,17.50
2017-07-04T00:20:52.404Z,17.40
2017-07-04T00:20:56.646Z,17.50
2017-07-04T00:21:00.891Z,17.40
2017-07-04T00:21:05.109Z,17.50
2017-07-04T00:21:09.344Z,17.40
2017-07-04T00:21:13.576Z,17.40
2017-07-04T00:21:17.823Z,17.40
2017-07-04T00:21:22.056Z,17.40
2017-07-04T00:21:26.301Z,17.40
2017-07-04T00:21:30.543Z,17.50
2017-07-04T00:21:34.766Z,17.40
2017-07-04T00:21:39.004Z,17.40
2017-07-04T00:21:43.293Z,17.40
2017-07-04T00:21:47.511Z,17.50
2017-07-04T00:21:51.740Z,17.40
2017-07-04T00:21:56.740Z,17.40
2017-07-04T00:22:00.986Z,17.40
2017-07-04T00:22:05.217Z,17.40
2017-07-04T00:22:09.478Z,17.40
2017-07-04T00:22:13.696Z,17.40
2017-07-04T00:22:17.936Z,17.40
2017-07-04T00:22:22.159Z,17.50
2017-07-04T00:22:27.161Z,17.50
2017-07-04T00:22:31.404Z,17.50
2017-07-04T00:22:35.646Z,17.40
2017-07-04T00:22:39.875Z,17.50
2017-07-04T00:22:44.105Z,17.40
2017-07-04T00:22:48.370Z,17.50
2017-07-04T00:22:52.636Z,17.50
2017-07-04T00:22:56.890Z,17.40
2017-07-04T00:23:01.154Z,17.40
2017-07-04T00:23:05.392Z,17.40
2017-07-04T00:23:10.384Z,17.40
2017-07-04T00:23:14.626Z,17.40
2017-07-04T00:23:18.865Z,17.50
2017-07-04T00:23:23.092Z,17.40
2017-07-04T00:23:28.099Z,17.50
2017-07-04T00:23:32.321Z,17.40
2017-07-04T00:23:37.317Z,17.50
2017-07-04T00:23:41.558Z,17.40
2017-07-04T00:23:45.802Z,17.50
2017-07-04T00:23:50.039Z,17.50
2017-07-04T00:23:55.041Z,17.50
2017-07-04T00:23:59.300Z,17.50
2017-07-04T00:24:03.552Z,17.40
2017-07-04T00:24:07.790Z,17.40
2017-07-04T00:24:12.020Z,17.50
2017-07-04T00:24:16.238Z,17.50
2017-07-04T00:24:20.505Z,17.50
2017-07-04T00:24:24.769Z,17.50
2017-07-04T00:24:28.992Z,17.40
2017-07-04T00:24:33.238Z,17.40
2017-07-04T00:24:37.491Z,17.50
2017-07-04T00:24:41.709Z,17.40
2017-07-04T00:24:45.934Z,17.50
2017-07-04T00:24:50.175Z,17.40
2017-07-04T00:24:54.425Z,17.50
2017-07-04T00:24:58.679Z,17.40
2017-07-04T00:25:02.896Z,17.40
2017-07-04T00:25:07.124Z,17.40
2017-07-04T00:25:11.383Z,17.40
2017-07-04T00:25:15.623Z,17.40
2017-07-04T00:25:19.852Z,17.40
2017-07-04T00:25:24.096Z,17.40
2017-07-04T00:25:28.333Z,17.40
2017-07-04T00:25:33.332Z,17.40
2017-07-04T00:25:37.570Z,17.40
2017-07-04T00:25:42.562Z,17.40
2017-07-04T00:25:46.801Z,17.40
2017-07-04T00:25:51.032Z,17.40
2017-07-04T00:25:55.272Z,17.40
2017-07-04T00:26:00.299Z,17.40
2017-07-04T00:26:05.301Z,17.40
2017-07-04T00:26:09.533Z,17.40
2017-07-04T00:26:13.779Z,17.40
2017-07-04T00:26:18.015Z,17.40
2017-07-04T00:26:23.018Z,17.40
2017-07-04T00:26:27.249Z,17.40
2017-07-04T00:26:31.487Z,17.40
2017-07-04T00:26:35.707Z,17.40
2017-07-04T00:26:39.936Z,17.40
2017-07-04T00:26:44.970Z,17.40
2017-07-04T00:26:49.215Z,17.40
2017-07-04T00:26:53.438Z,17.40
2017-07-04T00:26:58.465Z,17.40
2017-07-04T00:27:02.677Z,17.40
2017-07-04T00:27:07.679Z,17.40
2017-07-04T00:27:12.694Z,17.40
2017-07-04T00:27:17.695Z,17.40
2017-07-04T00:27:21.948Z,17.40
2017-07-04T00:27:26.174Z,17.40
2017-07-04T00:27:30.415Z,17.40
2017-07-04T00:27:35.427Z,17.40
2017-07-04T00:27:39.771Z,17.40
2017-07-04T00:27:44.762Z,17.40
2017-07-04T00:27:49.759Z,17.40
2017-07-04T00:27:54.034Z,17.40
2017-07-04T00:27:58.276Z,17.40
2017-07-04T00:28:03.263Z,17.40
2017-07-04T00:28:07.502Z,17.40
2017-07-04T00:28:12.506Z,17.40
2017-07-04T00:28:17.509Z,17.40
2017-07-04T00:28:21.763Z,17.40
2017-07-04T00:28:25.994Z,17.40
2017-07-04T00:28:30.238Z,17.40
2017-07-04T00:28:34.473Z,17.40
2017-07-04T00:28:38.751Z,17.40
2017-07-04T00:28:42.995Z,17.40
2017-07-04T00:28:47.232Z,17.40
2017-07-04T00:28:52.224Z,17.40
2017-07-04T00:28:56.459Z,17.40
2017-07-04T00:29:00.689Z,17.40
2017-07-04T00:29:04.916Z,17.40
2017-07-04T00:29:09.167Z,17.40
2017-07-04T00:29:13.463Z,17.40
2017-07-04T00:29:18.458Z,17.40
2017-07-04T00:29:22.705Z,17.40
2017-07-04T00:29:26.943Z,17.40
2017-07-04T00:29:31.202Z,17.40
2017-07-04T00:29:35.451Z,17.40
2017-07-04T00:29:39.692Z,17.40
2017-07-04T00:29:43.936Z,17.40
2017-07-04T00:29:48.157Z,17.40
2017-07-04T00:29:53.157Z,17.40
2017-07-04T00:29:57.415Z,17.40
2017-07-04T00:30:01.655Z,17.40
2017-07-04T00:30:05.889Z,17.40
2017-07-04T00:30:10.132Z,17.40
2017-07-04T00:30:14.365Z,17.40
2017-07-04T00:30:18.593Z,17.40
2017-07-04T00:30:22.828Z,17.40
2017-07-04T00:30:27.071Z,17.40
2017-07-04T00:30:31.323Z,17.40
2017-07-04T00:30:36.072Z,17.40
2017-07-04T00:30:40.326Z,17.40
2017-07-04T00:30:44.562Z,17.40
2017-07-04T00:30:48.798Z,17.40
2017-07-04T00:30:53.028Z,17.40
2017-07-04T00:30:57.288Z,17.40
2017-07-04T00:31:01.513Z,17.40
2017-07-04T00:31:05.754Z,17.40
2017-07-04T00:31:10.006Z,17.40
2017-07-04T00:31:14.980Z,17.40
2017-07-04T00:31:19.217Z,17.40
2017-07-04T00:31:23.448Z,17.40
2017-07-04T00:31:27.676Z,17.40
2017-07-04T00:31:31.905Z,17.40
2017-07-04T00:31:36.893Z,17.30
2017-07-04T00:31:41.136Z,17.30
2017-07-04T00:31:45.370Z,17.40
2017-07-04T00:31:49.602Z,17.40
2017-07-04T00:31:53.844Z,17.30
2017-07-04T00:31:58.148Z,17.30
2017-07-04T00:32:02.366Z,17.30
2017-07-04T00:32:06.578Z,17.30
2017-07-04T00:32:10.816Z,17.30
2017-07-04T00:32:15.060Z,17.30
2017-07-04T00:32:19.289Z,17.30
2017-07-04T00:32:23.513Z,17.30
2017-07-04T00:32:27.767Z,17.30
2017-07-04T00:32:31.992Z,17.30
2017-07-04T00:32:36.225Z,17.30
2017-07-04T00:32:40.452Z,17.30
2017-07-04T00:32:44.693Z,17.30
2017-07-04T00:32:48.920Z,17.30
2017-07-04T00:32:53.158Z,17.30
2017-07-04T00:32:57.406Z,17.30
2017-07-04T00:33:01.637Z,17.30
2017-07-04T00:33:05.882Z,17.30
2017-07-04T00:33:10.120Z,17.30
2017-07-04T00:33:15.115Z,17.30
2017-07-04T00:33:19.349Z,17.30
2017-07-04T00:33:23.611Z,17.30
2017-07-04T00:33:27.854Z,17.30
2017-07-04T00:33:32.098Z,17.30
2017-07-04T00:33:36.321Z,17.30
2017-07-04T00:33:40.582Z,17.30
2017-07-04T00:33:44.811Z,17.30
2017-07-04T00:33:49.047Z,17.30
2017-07-04T00:33:53.286Z,17.30
2017-07-04T00:33:57.534Z,17.30
2017-07-04T00:34:02.558Z,17.30
2017-07-04T00:34:06.799Z,17.30
2017-07-04T00:34:11.032Z,17.30
2017-07-04T00:34:16.028Z,17.30
2017-07-04T00:34:20.253Z,17.20
2017-07-04T00:34:25.257Z,17.30
2017-07-04T00:34:29.501Z,17.20
2017-07-04T00:34:33.747Z,17.20
2017-07-04T00:34:37.984Z,17.30
2017-07-04T00:34:42.981Z,17.30
2017-07-04T00:34:47.206Z,17.30
2017-07-04T00:34:51.436Z,17.30
2017-07-04T00:34:55.688Z,17.20
2017-07-04T00:34:59.922Z,17.20
2017-07-04T00:35:04.148Z,17.30
2017-07-04T00:35:08.378Z,17.20
2017-07-04T00:35:12.625Z,17.20
2017-07-04T00:35:16.857Z,17.20
2017-07-04T00:35:21.094Z,17.20
2017-07-04T00:35:25.341Z,17.30
2017-07-04T00:35:29.598Z,17.30
2017-07-04T00:35:34.588Z,17.20
2017-07-04T00:35:38.830Z,17.30
2017-07-04T00:35:43.078Z,17.30
2017-07-04T00:35:47.311Z,17.30
2017-07-04T00:35:52.298Z,17.30
2017-07-04T00:35:56.530Z,17.20
2017-07-04T00:36:01.984Z,17.20
2017-07-04T00:36:06.255Z,17.20
2017-07-04T00:36:10.488Z,17.20
2017-07-04T00:36:14.749Z,17.20
2017-07-04T00:36:18.998Z,17.20
2017-07-04T00:36:23.224Z,17.20
2017-07-04T00:36:27.461Z,17.20
2017-07-04T00:36:32.455Z,17.20
2017-07-04T00:36:36.685Z,17.20
2017-07-04T00:36:40.957Z,17.20
2017-07-04T00:36:45.184Z,17.20
2017-07-04T00:36:49.432Z,17.20
2017-07-04T00:36:53.681Z,17.20
2017-07-04T00:36:58.708Z,17.20
2017-07-04T00:37:02.944Z,17.20
2017-07-04T00:37:07.172Z,17.20
2017-07-04T00:37:11.420Z,17.20
2017-07-04T00:37:15.668Z,17.20
2017-07-04T00:37:19.897Z,17.20
2017-07-04T00:37:24.146Z,17.20
2017-07-04T00:37:28.377Z,17.20
2017-07-04T00:37:32.621Z,17.20
2017-07-04T00:37:36.851Z,17.20
2017-07-04T00:37:41.093Z,17.20
2017-07-04T00:37:46.147Z,17.20
2017-07-04T00:37:50.398Z,17.20
2017-07-04T00:37:55.403Z,17.20
2017-07-04T00:37:59.662Z,17.20
2017-07-04T00:38:03.882Z,17.20
2017-07-04T00:38:08.113Z,17.20
2017-07-04T00:38:12.336Z,17.20
2017-07-04T00:38:16.591Z,17.20
2017-07-04T00:38:20.818Z,17.20
2017-07-04T00:38:25.807Z,17.20
2017-07-04T00:38:30.048Z,17.20
2017-07-04T00:38:35.060Z,17.20
2017-07-04T00:38:40.112Z,17.20
2017-07-04T00:38:44.325Z,17.20
2017-07-04T00:38:48.571Z,17.20
2017-07-04T00:38:52.793Z,17.20
2017-07-04T00:38:57.018Z,17.20
2017-07-04T00:39:01.246Z,17.20
2017-07-04T00:39:05.508Z,17.20
2017-07-04T00:39:09.737Z,17.20
2017-07-04T00:39:13.970Z,17.20
2017-07-04T00:39:18.956Z,17.20
2017-07-04T00:39:23.189Z,17.20
2017-07-04T00:39:28.242Z,17.20
2017-07-04T00:39:33.238Z,17.20
2017-07-04T00:39:37.471Z,17.20
2017-07-04T00:39:41.698Z,17.20
2017-07-04T00:39:45.985Z,17.20
2017-07-04T00:39:50.224Z,17.20
2017-07-04T00:39:55.232Z,17.20
2017-07-04T00:39:59.490Z,17.20
2017-07-04T00:40:03.716Z,17.20
2017-07-04T00:40:07.960Z,17.20
2017-07-04T00:40:12.281Z,17.20
2017-07-04T00:40:17.245Z,17.20
2017-07-04T00:40:21.486Z,17.20
2017-07-04T00:40:25.717Z,17.20
2017-07-04T00:40:29.950Z,17.20
2017-07-04T00:40:34.202Z,17.20
2017-07-04T00:40:38.439Z,17.20
2017-07-04T00:40:42.679Z,17.20
2017-07-04T00:40:46.912Z,17.20
2017-07-04T00:40:51.152Z,17.20
2017-07-04T00:40:55.384Z,17.20
2017-07-04T00:40:59.626Z,17.20
2017-07-04T00:41:03.860Z,17.20
2017-07-04T00:41:08.906Z,17.20
2017-07-04T00:41:13.143Z,17.20
2017-07-04T00:41:17.421Z,17.20
2017-07-04T00:41:21.662Z,17.10
2017-07-04T00:41:25.913Z,17.10
2017-07-04T00:41:30.140Z,17.10
2017-07-04T00:41:34.383Z,17.10
2017-07-04T00:41:39.406Z,17.10
2017-07-04T00:41:44.410Z,17.10
2017-07-04T00:41:49.402Z,17.10
2017-07-04T00:41:53.630Z,17.10
2017-07-04T00:41:58.629Z,17.10
2017-07-04T00:42:02.877Z,17.10
2017-07-04T00:42:07.109Z,17.10
2017-07-04T00:42:11.352Z,17.10
2017-07-04T00:42:16.372Z,17.10
2017-07-04T00:42:21.378Z,17.10
2017-07-04T00:42:26.383Z,17.10
2017-07-04T00:42:31.404Z,17.10
2017-07-04T00:42:35.659Z,17.10
2017-07-04T00:42:39.883Z,17.10
2017-07-04T00:42:44.109Z,17.10
2017-07-04T00:42:49.119Z,17.10
2017-07-04T00:42:53.353Z,17.10
2017-07-04T00:42:57.605Z,17.10
2017-07-04T00:43:01.855Z,17.10
2017-07-04T00:43:06.091Z,17.10
2017-07-04T00:43:10.340Z,17.10
2017-07-04T00:43:15.348Z,17.10
2017-07-04T00:43:19.573Z,17.00
2017-07-04T00:43:23.819Z,17.00
2017-07-04T00:43:28.063Z,17.10
2017-07-04T00:43:33.073Z,17.00
2017-07-04T00:43:37.291Z,17.00
2017-07-04T00:43:41.522Z,17.00
2017-07-04T00:43:45.768Z,17.00
2017-07-04T00:43:50.764Z,17.00
2017-07-04T00:43:55.229Z,17.00
2017-07-04T00:43:59.455Z,17.00
2017-07-04T00:44:03.695Z,17.00
2017-07-04T00:44:08.734Z,17.00
2017-07-04T00:44:12.970Z,17.00
2017-07-04T00:44:17.228Z,17.00
2017-07-04T00:44:21.463Z,17.00
2017-07-04T00:44:25.702Z,17.00
2017-07-04T00:44:30.017Z,17.00
2017-07-04T00:44:35.026Z,17.00
2017-07-04T00:44:39.270Z,17.00
2017-07-04T00:44:43.553Z,17.00
2017-07-04T00:44:47.791Z,17.00
2017-07-04T00:44:52.034Z,17.00
2017-07-04T00:44:57.041Z,17.00
2017-07-04T00:45:02.048Z,16.90
2017-07-04T00:45:06.280Z,17.00
2017-07-04T00:45:10.522Z,17.00
2017-07-04T00:45:14.758Z,17.00
2017-07-04T00:45:19.014Z,16.90
2017-07-04T00:45:23.236Z,17.00
2017-07-04T00:45:27.464Z,17.00
2017-07-04T00:45:32.508Z,17.00
2017-07-04T00:45:36.772Z,16.90
2017-07-04T00:45:41.810Z,16.90
2017-07-04T00:45:46.080Z,16.90
2017-07-04T00:45:50.318Z,16.90
2017-07-04T00:45:54.540Z,16.90
2017-07-04T00:45:58.781Z,16.90
2017-07-04T00:46:03.014Z,16.90
2017-07-04T00:46:07.267Z,16.90
2017-07-04T00:46:11.510Z,16.90
2017-07-04T00:46:16.533Z,16.90
2017-07-04T00:46:21.523Z,16.90
2017-07-04T00:46:25.769Z,16.90
2017-07-04T00:46:30.034Z,16.90
2017-07-04T00:46:35.025Z,16.90
2017-07-04T00:46:39.265Z,16.90
2017-07-04T00:46:43.586Z,16.90
2017-07-04T00:46:48.548Z,16.90
2017-07-04T00:46:52.780Z,16.90
2017-07-04T00:46:57.013Z,16.90
2017-07-04T00:47:01.242Z,16.90
2017-07-04T00:47:05.477Z,16.90
2017-07-04T00:47:09.733Z,16.90
2017-07-04T00:47:13.956Z,16.90
2017-07-04T00:47:18.201Z,16.90
2017-07-04T00:47:22.466Z,16.90
2017-07-04T00:47:26.697Z,16.90
2017-07-04T00:47:30.950Z,16.90
2017-07-04T00:47:35.170Z,16.90
2017-07-04T00:47:40.161Z,16.90
2017-07-04T00:47:44.407Z,16.90
2017-07-04T00:47:48.642Z,16.90
2017-07-04T00:47:52.886Z,16.90
2017-07-04T00:47:57.890Z,16.90
2017-07-04T00:48:02.121Z,16.90
2017-07-04T00:48:06.379Z,16.90
2017-07-04T00:48:10.600Z,16.90
2017-07-04T00:48:15.607Z,16.90
2017-07-04T00:48:19.847Z,16.90
2017-07-04T00:48:24.064Z,16.90
2017-07-04T00:48:28.319Z,16.90
2017-07-04T00:48:32.546Z,16.90
2017-07-04T00:48:36.798Z,16.90
2017-07-04T00:48:41.039Z,16.90
2017-07-04T00:48:45.906Z,16.90
2017-07-04T00:48:50.142Z,16.90
2017-07-04T00:48:55.160Z,16.90
2017-07-04T00:49:00.194Z,16.90
2017-07-04T00:49:04.438Z,16.90
2017-07-04T00:49:08.676Z,16.90
2017-07-04T00:49:13.695Z,16.90
2017-07-04T00:49:18.696Z,16.90
2017-07-04T00:49:22.938Z,16.90
2017-07-04T00:49:27.183Z,16.90
2017-07-04T00:49:31.429Z,16.90
2017-07-04T00:49:36.415Z,16.90
2017-07-04T00:49:41.418Z,16.90
2017-07-04T00:49:45.656Z,16.90
2017-07-04T00:49:49.908Z,16.90
2017-07-04T00:49:54.137Z,16.90
2017-07-04T00:49:59.132Z,16.90
2017-07-04T00:50:03.377Z,16.90
2017-07-04T00:50:07.595Z,16.90
2017-07-04T00:50:11.832Z,16.90
2017-07-04T00:50:16.083Z,16.90
2017-07-04T00:50:20.323Z,16.90
2017-07-04T00:50:24.567Z,16.90
2017-07-04T00:50:28.819Z,16.90
2017-07-04T00:50:33.064Z,16.90
2017-07-04T00:50:38.050Z,16.90
2017-07-04T00:50:42.361Z,16.90
2017-07-04T00:50:46.595Z,16.80
2017-07-04T00:50:50.874Z,16.90
2017-07-04T00:50:55.059Z,16.90
2017-07-04T00:50:59.287Z,16.90
2017-07-04T00:51:03.528Z,16.90
2017-07-04T00:51:07.783Z,16.90
2017-07-04T00:51:12.037Z,16.90
2017-07-04T00:51:16.278Z,16.90
2017-07-04T00:51:20.518Z,16.90
2017-07-04T00:51:24.741Z,16.90
2017-07-04T00:51:29.028Z,16.90
2017-07-04T00:51:33.246Z,16.90
2017-07-04T00:51:37.498Z,16.90
2017-07-04T00:51:41.728Z,16.80
2017-07-04T00:51:45.957Z,16.90
2017-07-04T00:51:50.199Z,16.90
2017-07-04T00:51:54.447Z,16.90
2017-07-04T00:51:58.686Z,16.90
2017-07-04T00:52:02.943Z,16.90
2017-07-04T00:52:07.170Z,16.90
2017-07-04T00:52:11.422Z,16.90
2017-07-04T00:52:15.641Z,16.90
2017-07-04T00:52:19.889Z,16.90
2017-07-04T00:52:24.116Z,16.90
2017-07-04T00:52:28.373Z,16.90
2017-07-04T00:52:32.603Z,16.90
2017-07-04T00:52:36.824Z,16.90
2017-07-04T00:52:41.054Z,16.90
2017-07-04T00:52:45.288Z,16.90
2017-07-04T00:52:49.520Z,16.90
2017-07-04T00:52:53.757Z,16.90
2017-07-04T00:52:57.981Z,16.90
2017-07-04T00:53:02.234Z,16.90
2017-07-04T00:53:06.484Z,16.90
2017-07-04T00:53:10.742Z,16.90
2017-07-04T00:53:14.977Z,16.90
2017-07-04T00:53:19.231Z,16.90
2017-07-04T00:53:23.453Z,16.90
2017-07-04T00:53:28.525Z,16.90
2017-07-04T00:53:32.749Z,16.80
2017-07-04T00:53:37.002Z,16.90
2017-07-04T00:53:41.248Z,16.90
2017-07-04T00:53:45.473Z,16.90
2017-07-04T00:53:49.723Z,16.90
2017-07-04T00:53:53.946Z,16.90
2017-07-04T00:53:58.193Z,16.90
2017-07-04T00:54:02.429Z,16.90
2017-07-04T00:54:06.662Z,16.90
2017-07-04T00:54:10.973Z,16.90
2017-07-04T00:54:16.015Z,16.90
2017-07-04T00:54:20.238Z,16.90
2017-07-04T00:54:24.464Z,16.90
2017-07-04T00:54:28.890Z,16.90
2017-07-04T00:54:33.112Z,16.90
2017-07-04T00:54:38.115Z,16.90
2017-07-04T00:54:42.353Z,16.90
2017-07-04T00:54:46.573Z,16.90
2017-07-04T00:54:50.821Z,16.90
2017-07-04T00:54:55.824Z,16.90
2017-07-04T00:55:00.837Z,16.90
2017-07-04T00:55:05.078Z,16.90
2017-07-04T00:55:09.301Z,16.90
2017-07-04T00:55:13.539Z,16.90
2017-07-04T00:55:17.797Z,16.90
2017-07-04T00:55:22.038Z,16.90
2017-07-04T00:55:26.263Z,16.90
2017-07-04T00:55:30.492Z,16.90
2017-07-04T00:55:34.733Z,16.90
2017-07-04T00:55:38.983Z,16.90
2017-07-04T00:55:43.209Z,16.90
2017-07-04T00:55:47.444Z,16.90
2017-07-04T00:55:52.454Z,16.90
2017-07-04T00:55:56.702Z,16.90
2017-07-04T00:56:00.942Z,16.90
2017-07-04T00:56:05.160Z,16.90
2017-07-04T00:56:10.160Z,16.90